ENY14 KLIT-KMIA
Flight info
| Callsign | ENY14 |
|---|---|
| Flight time | N/A |
| Altitude | 37000 |
| Route | MICKE DEFUN FROGZ5 |
| Aircraft | E170/M-SDE3GILORVW/S |
Departure
| Time | N/A |
|---|---|
| Airport | Bill & Hillary Clinton National Airport/Adams Field (KLIT) |
Arrival
| Time | 2026-04-30 18:51 |
|---|---|
| Airport | Miami International Airport (KMIA) |
| Time | Latitude | Longitude | Altitude | Speed | Heading |
|---|---|---|---|---|---|
| 2026-04-30 17:39 | 32.07606 | -87.93780 | 36974 ft | 565 kts | 133° |
| 2026-04-30 17:42 | 31.83015 | -87.57901 | 36958 ft | 563 kts | 133° |
| 2026-04-30 17:43 | 31.70740 | -87.40120 | 36958 ft | 562 kts | 133° |
| 2026-04-30 17:44 | 31.55943 | -87.18794 | 36950 ft | 561 kts | 134° |
| 2026-04-30 17:47 | 31.33748 | -86.87027 | 36967 ft | 560 kts | 133° |
| 2026-04-30 17:48 | 31.16452 | -86.62450 | 36954 ft | 558 kts | 133° |
| 2026-04-30 17:50 | 30.96737 | -86.34628 | 36957 ft | 556 kts | 133° |
| 2026-04-30 17:52 | 30.81850 | -86.13938 | 36924 ft | 553 kts | 140° |
| 2026-04-30 17:54 | 30.55964 | -85.87882 | 36954 ft | 546 kts | 144° |
| 2026-04-30 17:56 | 30.32880 | -85.65123 | 36952 ft | 542 kts | 144° |
| 2026-04-30 17:58 | 30.15639 | -85.48222 | 36951 ft | 543 kts | 143° |
| 2026-04-30 18:00 | 29.92716 | -85.25873 | 36928 ft | 538 kts | 143° |
| 2026-04-30 18:01 | 29.78383 | -85.11970 | 36930 ft | 540 kts | 143° |
| 2026-04-30 18:02 | 29.61267 | -84.95436 | 36932 ft | 533 kts | 143° |
| 2026-04-30 18:04 | 29.44156 | -84.78985 | 36940 ft | 535 kts | 143° |
| 2026-04-30 18:06 | 29.21356 | -84.57179 | 36947 ft | 534 kts | 143° |
| 2026-04-30 18:08 | 29.01462 | -84.38259 | 36953 ft | 531 kts | 142° |
| 2026-04-30 18:10 | 28.78735 | -84.16763 | 36938 ft | 528 kts | 143° |
| 2026-04-30 18:11 | 28.58881 | -83.98090 | 36943 ft | 529 kts | 142° |
| 2026-04-30 18:13 | 28.44674 | -83.84783 | 36957 ft | 528 kts | 142° |
| 2026-04-30 18:14 | 28.30533 | -83.71587 | 36961 ft | 524 kts | 142° |
| 2026-04-30 18:15 | 28.13610 | -83.55856 | 36963 ft | 528 kts | 141° |
| 2026-04-30 18:16 | 28.02301 | -83.45380 | 36955 ft | 524 kts | 141° |
| 2026-04-30 18:17 | 27.96677 | -83.40182 | 36960 ft | 524 kts | 141° |
| 2026-04-30 18:18 | 27.88169 | -83.32331 | 36938 ft | 525 kts | 142° |
| 2026-04-30 18:18 | 27.82515 | -83.27123 | 36940 ft | 522 kts | 142° |
| 2026-04-30 18:19 | 27.76849 | -83.21912 | 36941 ft | 525 kts | 142° |
| 2026-04-30 18:19 | 27.71203 | -83.16724 | 36944 ft | 524 kts | 142° |
| 2026-04-30 18:20 | 27.65610 | -83.11594 | 36940 ft | 516 kts | 142° |
| 2026-04-30 18:20 | 27.60073 | -83.06522 | 36948 ft | 515 kts | 142° |
| 2026-04-30 18:21 | 27.54505 | -83.01429 | 36943 ft | 514 kts | 142° |
| 2026-04-30 18:21 | 27.48947 | -82.96351 | 36948 ft | 515 kts | 142° |
| 2026-04-30 18:22 | 27.43423 | -82.91309 | 36946 ft | 513 kts | 142° |
| 2026-04-30 18:22 | 27.35085 | -82.83716 | 36946 ft | 512 kts | 142° |
| 2026-04-30 18:23 | 27.29544 | -82.78677 | 36945 ft | 511 kts | 142° |
| 2026-04-30 18:23 | 27.24003 | -82.73644 | 36949 ft | 512 kts | 142° |
| 2026-04-30 18:24 | 27.15704 | -82.66119 | 36950 ft | 512 kts | 142° |
| 2026-04-30 18:25 | 27.10169 | -82.61110 | 36956 ft | 510 kts | 142° |
| 2026-04-30 18:25 | 27.01883 | -82.53622 | 36959 ft | 511 kts | 142° |
| 2026-04-30 18:26 | 26.93598 | -82.46149 | 36955 ft | 511 kts | 142° |
| 2026-04-30 18:27 | 26.85477 | -82.38474 | 36942 ft | 511 kts | 140° |
| 2026-04-30 18:28 | 26.77473 | -82.30797 | 36926 ft | 494 kts | 140° |
| 2026-04-30 18:28 | 26.69626 | -82.23286 | 36415 ft | 498 kts | 140° |
| 2026-04-30 18:29 | 26.67031 | -82.20805 | 35812 ft | 494 kts | 140° |
| 2026-04-30 18:29 | 26.59272 | -82.13396 | 33863 ft | 490 kts | 141° |
| 2026-04-30 18:30 | 26.54956 | -82.09281 | 32797 ft | 490 kts | 141° |
| 2026-04-30 18:30 | 26.49028 | -82.03416 | 31341 ft | 487 kts | 139° |
| 2026-04-30 18:31 | 26.46526 | -82.00891 | 30700 ft | 480 kts | 139° |
| 2026-04-30 18:31 | 26.41656 | -81.95988 | 29447 ft | 467 kts | 139° |
| 2026-04-30 18:32 | 26.36879 | -81.91185 | 28232 ft | 458 kts | 138° |
| 2026-04-30 18:32 | 26.34509 | -81.88804 | 27621 ft | 456 kts | 139° |
| 2026-04-30 18:32 | 26.29822 | -81.84100 | 26412 ft | 452 kts | 138° |
| 2026-04-30 18:33 | 26.27504 | -81.81776 | 25819 ft | 448 kts | 139° |
| 2026-04-30 18:33 | 26.23277 | -81.76767 | 24693 ft | 443 kts | 118° |
| 2026-04-30 18:33 | 26.21879 | -81.73713 | 24141 ft | 444 kts | 115° |
| 2026-04-30 18:34 | 26.20528 | -81.70630 | 23559 ft | 441 kts | 115° |
| 2026-04-30 18:34 | 26.17885 | -81.64559 | 22399 ft | 433 kts | 115° |
| 2026-04-30 18:34 | 26.16568 | -81.61535 | 21851 ft | 431 kts | 115° |
| 2026-04-30 18:35 | 26.15281 | -81.58579 | 21282 ft | 426 kts | 115° |
| 2026-04-30 18:35 | 26.13991 | -81.55619 | 20727 ft | 420 kts | 115° |
| 2026-04-30 18:35 | 26.12735 | -81.52740 | 20159 ft | 415 kts | 114° |
| 2026-04-30 18:36 | 26.10246 | -81.47038 | 19079 ft | 408 kts | 114° |
| 2026-04-30 18:36 | 26.09011 | -81.44210 | 18524 ft | 406 kts | 114° |
| 2026-04-30 18:36 | 26.06567 | -81.38618 | 17502 ft | 398 kts | 114° |
| 2026-04-30 18:37 | 26.05357 | -81.35838 | 16999 ft | 395 kts | 114° |
| 2026-04-30 18:37 | 26.04170 | -81.33112 | 16474 ft | 391 kts | 114° |
| 2026-04-30 18:37 | 26.02994 | -81.30413 | 15951 ft | 388 kts | 115° |
| 2026-04-30 18:37 | 26.01824 | -81.27731 | 15432 ft | 385 kts | 115° |
| 2026-04-30 18:38 | 26.00669 | -81.25085 | 14916 ft | 381 kts | 115° |
| 2026-04-30 18:38 | 25.99514 | -81.22440 | 14405 ft | 379 kts | 115° |
| 2026-04-30 18:38 | 25.98374 | -81.19830 | 13933 ft | 375 kts | 115° |
| 2026-04-30 18:38 | 25.97248 | -81.17256 | 13445 ft | 371 kts | 115° |
| 2026-04-30 18:39 | 25.96117 | -81.14671 | 12940 ft | 369 kts | 115° |
| 2026-04-30 18:39 | 25.95000 | -81.12118 | 12450 ft | 365 kts | 115° |
| 2026-04-30 18:39 | 25.93895 | -81.09597 | 11963 ft | 363 kts | 115° |
| 2026-04-30 18:39 | 25.92812 | -81.07127 | 11497 ft | 358 kts | 115° |
| 2026-04-30 18:40 | 25.91733 | -81.04665 | 11032 ft | 348 kts | 115° |
| 2026-04-30 18:40 | 25.90749 | -81.02244 | 10564 ft | 338 kts | 112° |
| 2026-04-30 18:40 | 25.89854 | -80.99902 | 10126 ft | 329 kts | 112° |
| 2026-04-30 18:40 | 25.88966 | -80.97584 | 9726 ft | 320 kts | 112° |
| 2026-04-30 18:41 | 25.88109 | -80.95348 | 9316 ft | 312 kts | 112° |
| 2026-04-30 18:41 | 25.87266 | -80.93150 | 8963 ft | 302 kts | 112° |
| 2026-04-30 18:41 | 25.86459 | -80.91048 | 8954 ft | 299 kts | 112° |
| 2026-04-30 18:41 | 25.85667 | -80.88985 | 8950 ft | 303 kts | 112° |
| 2026-04-30 18:42 | 25.84846 | -80.86848 | 8951 ft | 305 kts | 112° |
| 2026-04-30 18:42 | 25.83171 | -80.82495 | 8571 ft | 306 kts | 112° |
| 2026-04-30 18:42 | 25.82340 | -80.80335 | 8172 ft | 303 kts | 112° |
| 2026-04-30 18:45 | 25.77344 | -80.61083 | 4639 ft | 208 kts | 88° |
| 2026-04-30 18:45 | 25.77378 | -80.59498 | 4400 ft | 205 kts | 86° |
| 2026-04-30 18:45 | 25.77463 | -80.57908 | 4122 ft | 206 kts | 86° |
| 2026-04-30 18:46 | 25.77538 | -80.56356 | 3984 ft | 199 kts | 86° |
| 2026-04-30 18:46 | 25.77610 | -80.54810 | 3956 ft | 202 kts | 86° |
| 2026-04-30 18:46 | 25.77680 | -80.53240 | 3722 ft | 203 kts | 87° |
| 2026-04-30 18:46 | 25.77746 | -80.51722 | 3521 ft | 196 kts | 87° |
| 2026-04-30 18:47 | 25.77809 | -80.50221 | 3271 ft | 193 kts | 87° |
| 2026-04-30 18:47 | 25.77871 | -80.48734 | 3014 ft | 190 kts | 87° |
| 2026-04-30 18:47 | 25.77936 | -80.47324 | 2773 ft | 176 kts | 88° |
| 2026-04-30 18:47 | 25.77993 | -80.46022 | 2565 ft | 159 kts | 88° |
| 2026-04-30 18:48 | 25.78043 | -80.44869 | 2362 ft | 144 kts | 88° |
| 2026-04-30 18:48 | 25.78090 | -80.43767 | 2160 ft | 142 kts | 89° |
| 2026-04-30 18:48 | 25.78137 | -80.42673 | 1984 ft | 144 kts | 89° |
| 2026-04-30 18:48 | 25.78181 | -80.41561 | 1829 ft | 145 kts | 90° |
| 2026-04-30 18:49 | 25.78230 | -80.40434 | 1714 ft | 150 kts | 89° |
| 2026-04-30 18:49 | 25.78281 | -80.39262 | 1571 ft | 154 kts | 89° |
| 2026-04-30 18:49 | 25.78342 | -80.38068 | 1424 ft | 154 kts | 89° |
| 2026-04-30 18:49 | 25.78411 | -80.36868 | 1202 ft | 157 kts | 88° |
| 2026-04-30 18:50 | 25.78496 | -80.35680 | 923 ft | 153 kts | 89° |
| 2026-04-30 18:50 | 25.78523 | -80.34537 | 681 ft | 145 kts | 92° |
| 2026-04-30 18:50 | 25.78548 | -80.33444 | 464 ft | 138 kts | 92° |
| 2026-04-30 18:50 | 25.78583 | -80.32391 | 259 ft | 138 kts | 91° |
| 2026-04-30 18:51 | 25.78626 | -80.31311 | 102 ft | 140 kts | 91° |
| 2026-04-30 18:51 | 25.78666 | -80.30244 | 15 ft | 134 kts | 90° |
| 2026-04-30 18:51 | 25.78694 | -80.29380 | 12 ft | 80 kts | 90° |
| 2026-04-30 18:51 | 25.78714 | -80.28951 | 13 ft | 45 kts | 86° |
| 2026-04-30 18:52 | 25.78747 | -80.28640 | 13 ft | 37 kts | 91° |
| 2026-04-30 18:52 | 25.78821 | -80.28435 | 13 ft | 27 kts | 56° |
| 2026-04-30 18:52 | 25.78898 | -80.28329 | 12 ft | 14 kts | 51° |
| 2026-04-30 18:52 | 25.78967 | -80.28233 | 10 ft | 15 kts | 52° |
| 2026-04-30 18:53 | 25.79016 | -80.28168 | 10 ft | 8 kts | 49° |
| 2026-04-30 18:53 | 25.79061 | -80.28172 | 10 ft | 8 kts | 294° |
| 2026-04-30 18:53 | 25.79089 | -80.28227 | 10 ft | 8 kts | 300° |
| 2026-04-30 18:53 | 25.79122 | -80.28290 | 10 ft | 9 kts | 305° |
| 2026-04-30 18:54 | 25.79160 | -80.28354 | 10 ft | 10 kts | 302° |
| 2026-04-30 18:54 | 25.79212 | -80.28410 | 10 ft | 10 kts | 323° |
| 2026-04-30 18:54 | 25.79257 | -80.28480 | 10 ft | 11 kts | 300° |
| 2026-04-30 18:54 | 25.79305 | -80.28553 | 10 ft | 12 kts | 326° |
| 2026-04-30 18:55 | 25.79387 | -80.28568 | 10 ft | 12 kts | 357° |
| 2026-04-30 18:55 | 25.79578 | -80.28577 | 10 ft | 11 kts | 358° |
| 2026-04-30 18:55 | 25.79636 | -80.28572 | 10 ft | 8 kts | 30° |
| 2026-04-30 18:56 | 25.79714 | -80.28522 | 10 ft | 2 kts | 25° |
| 2026-04-30 18:56 | 25.79717 | -80.28521 | 10 ft | 0 kts | 25° |